Time;durP1;ratioP1;P1;durP2;ratioP2;P2;SDS_P1;SDS_P2;PMS_P1;PMS_P2;Temp;Humidity;BMP_temperature;BMP_pressure;BME280_temperature;BME280_humidity;BME280_pressure;Samples;Min_cycle;Max_cycle;Signal;HPM_P1;HPM_P2
2022/05/13 00:02:08;;;;;;;4.30;0.57;;;12.80;69.10;;;;;;5014307;28;20118;-77
2022/05/13 00:04:34;;;;;;;5.70;1.20;;;12.70;69.40;;;;;;5014249;28;20061;-77
2022/05/13 00:06:59;;;;;;;7.00;0.95;;;12.70;69.70;;;;;;5009485;28;20100;-77
2022/05/13 00:09:56;;;;;;;3.50;0.60;;;12.70;69.80;;;;;;4993309;28;20034;-78
2022/05/13 00:12:11;;;;;;;6.45;0.70;;;12.70;70.30;;;;;;4994146;28;20367;-77
2022/05/13 00:14:38;;;;;;;4.30;0.85;;;12.60;70.40;;;;;;4994584;28;20105;-77
2022/05/13 00:17:04;;;;;;;6.32;1.15;;;12.70;70.20;;;;;;4993312;28;20054;-78
2022/05/13 00:19:31;;;;;;;12.18;1.08;;;12.60;70.80;;;;;;4993152;28;20427;-78
2022/05/13 00:21:57;;;;;;;4.43;0.95;;;12.60;70.40;;;;;;4976836;28;20125;-78
2022/05/13 00:24:22;;;;;;;6.85;1.08;;;12.60;70.60;;;;;;4976855;28;20117;-79
2022/05/13 00:26:48;;;;;;;4.90;0.80;;;12.60;71.20;;;;;;4993127;28;20130;-78
2022/05/13 00:29:14;;;;;;;6.05;0.80;;;12.60;71.40;;;;;;5021689;28;20061;-78
2022/05/13 00:31:39;;;;;;;3.95;0.80;;;12.50;71.20;;;;;;5011106;28;20081;-78
2022/05/13 00:34:05;;;;;;;4.75;0.70;;;12.50;71.30;;;;;;4992812;28;20084;-78
2022/05/13 00:36:31;;;;;;;4.65;0.82;;;12.40;71.90;;;;;;4994179;28;20058;-77
2022/05/13 00:38:56;;;;;;;6.25;0.93;;;12.40;71.60;;;;;;5009442;28;20426;-78
2022/05/13 00:41:22;;;;;;;6.65;0.63;;;12.40;72.00;;;;;;4992825;28;20031;-77
2022/05/13 00:43:53;;;;;;;4.88;1.00;;;12.30;72.30;;;;;;5008837;28;20062;-77
2022/05/13 00:46:20;;;;;;;4.70;1.10;;;12.40;72.20;;;;;;4992830;28;20037;-77
2022/05/13 00:48:46;;;;;;;6.30;0.88;;;12.20;72.40;;;;;;4994035;28;20036;-78
2022/05/13 00:51:17;;;;;;;4.80;0.85;;;12.20;73.20;;;;;;4976706;28;20469;-77
2022/05/13 00:53:45;;;;;;;5.03;0.90;;;12.20;73.50;;;;;;4992877;28;20031;-77
2022/05/13 00:56:11;;;;;;;8.48;1.00;;;12.10;73.40;;;;;;4992698;28;20026;-77
2022/05/13 00:58:42;;;;;;;10.00;1.00;;;12.20;73.20;;;;;;4992737;28;20096;-77
2022/05/13 01:01:08;;;;;;;5.82;0.90;;;12.10;72.90;;;;;;5008960;28;20316;-78
2022/05/13 01:03:36;;;;;;;3.10;0.65;;;12.10;73.10;;;;;;4993872;28;20080;-77
2022/05/13 01:06:06;;;;;;;4.22;0.80;;;12.10;73.90;;;;;;4992846;28;20033;-77
2022/05/13 01:08:35;;;;;;;7.63;1.00;;;12.10;74.00;;;;;;4992621;28;20019;-76
2022/05/13 01:11:04;;;;;;;7.32;0.75;;;12.10;73.80;;;;;;4992641;28;20475;-77
2022/05/13 01:13:31;;;;;;;7.10;0.93;;;12.10;74.00;;;;;;4992483;28;20046;-77
2022/05/13 01:15:58;;;;;;;6.22;0.90;;;12.00;74.10;;;;;;4992565;28;20034;-77
2022/05/13 01:18:36;;;;;;;7.90;0.90;;;12.00;75.20;;;;;;4992686;28;20033;-77
2022/05/13 01:21:05;;;;;;;4.63;0.98;;;12.00;74.30;;;;;;4992404;28;20033;-77
2022/05/13 01:23:34;;;;;;;9.50;1.17;;;12.00;74.30;;;;;;4994057;28;20022;-77
2022/05/13 01:26:04;;;;;;;6.78;0.95;;;12.00;74.80;;;;;;4994161;28;20027;-76
2022/05/13 01:28:51;;;;;;;4.53;0.70;;;12.00;74.60;;;;;;4993722;28;20459;-79
2022/05/13 01:31:26;;;;;;;5.63;1.20;;;11.90;74.60;;;;;;4976219;28;20035;-77
2022/05/13 01:33:53;;;;;;;4.70;0.90;;;11.90;74.80;;;;;;4993546;28;20034;-77
2022/05/13 01:36:19;;;;;;;4.28;0.80;;;11.90;74.90;;;;;;4976236;28;20088;-77
2022/05/13 01:38:45;;;;;;;4.88;1.02;;;11.90;75.00;;;;;;5008947;28;20374;-77
2022/05/13 01:41:12;;;;;;;8.00;1.25;;;11.90;75.00;;;;;;4975986;28;20089;-77
2022/05/13 01:43:40;;;;;;;6.17;1.00;;;11.80;75.30;;;;;;5001270;28;20117;-76
2022/05/13 01:46:06;;;;;;;7.75;1.13;;;11.80;75.30;;;;;;5011871;28;20025;-77
2022/05/13 01:48:33;;;;;;;7.55;1.27;;;11.80;76.20;;;;;;4995629;28;20061;-77
2022/05/13 01:50:59;;;;;;;4.22;1.30;;;11.80;76.10;;;;;;4996025;28;20038;-77
2022/05/13 01:53:25;;;;;;;3.67;0.77;;;11.80;76.20;;;;;;4995575;28;20066;-76
2022/05/13 01:55:52;;;;;;;7.40;1.13;;;11.80;77.30;;;;;;5015003;28;20037;-76
2022/05/13 01:58:20;;;;;;;5.25;1.10;;;11.80;76.60;;;;;;4999380;28;20053;-76
2022/05/13 02:00:48;;;;;;;9.35;1.17;;;11.80;76.60;;;;;;5015324;28;20030;-75
2022/05/13 02:05:59;;;;;;;7.55;1.13;;;11.80;77.80;;;;;;5028229;28;20496;-76
2022/05/13 02:08:25;;;;;;;6.35;1.35;;;11.70;77.60;;;;;;5016437;28;20061;-79
2022/05/13 02:10:51;;;;;;;2.88;0.85;;;11.70;78.00;;;;;;5016169;28;20034;-79
2022/05/13 02:13:17;;;;;;;11.02;1.50;;;11.80;77.70;;;;;;5016758;28;20105;-80
2022/05/13 02:15:43;;;;;;;3.53;1.00;;;11.80;77.80;;;;;;5016532;28;20034;-80
2022/05/13 02:18:09;;;;;;;6.15;1.08;;;11.80;77.90;;;;;;4998740;28;20044;-79
2022/05/13 02:20:36;;;;;;;5.00;1.20;;;11.80;78.70;;;;;;5014847;28;20413;-81
2022/05/13 02:23:02;;;;;;;12.23;1.80;;;11.80;79.00;;;;;;5015015;28;20026;-80
2022/05/13 02:25:31;;;;;;;5.22;1.05;;;11.80;79.20;;;;;;4982390;28;20517;-80
2022/05/13 02:27:58;;;;;;;7.13;1.48;;;11.80;79.00;;;;;;5014923;28;20459;-79
2022/05/13 02:30:25;;;;;;;7.47;1.77;;;11.80;78.90;;;;;;4998509;28;20033;-79
2022/05/13 02:32:50;;;;;;;5.57;1.00;;;11.80;78.90;;;;;;5015962;28;20104;-82
2022/05/13 02:35:16;;;;;;;7.60;1.65;;;11.80;79.30;;;;;;5015899;28;20060;-80
2022/05/13 02:37:42;;;;;;;4.57;1.20;;;11.80;79.30;;;;;;4998521;28;20414;-80
2022/05/13 02:40:08;;;;;;;6.85;1.15;;;11.80;79.10;;;;;;4998356;28;20129;-81
2022/05/13 02:42:34;;;;;;;10.47;1.47;;;11.80;79.50;;;;;;5015902;28;20036;-79
2022/05/13 02:45:00;;;;;;;4.85;1.35;;;11.80;79.80;;;;;;4978583;28;20043;-81
2022/05/13 02:47:26;;;;;;;11.30;1.50;;;11.80;80.20;;;;;;5011216;28;20031;-80
2022/05/13 02:50:17;;;;;;;7.47;1.35;;;11.80;79.80;;;;;;4978699;28;20026;-84
2022/05/13 02:52:38;;;;;;;9.63;2.13;;;11.80;80.40;;;;;;4996073;28;20715;-81
2022/05/13 02:55:04;;;;;;;14.85;2.00;;;11.80;80.90;;;;;;4994865;28;20038;-81
2022/05/13 02:57:29;;;;;;;9.02;1.70;;;11.80;81.10;;;;;;4994781;28;20026;-81
2022/05/13 02:59:55;;;;;;;10.40;2.28;;;11.80;81.20;;;;;;4978476;28;20501;-81
2022/05/13 03:02:21;;;;;;;4.75;1.45;;;11.80;81.90;;;;;;4994710;28;20041;-80
2022/05/13 03:04:47;;;;;;;7.68;2.00;;;11.80;82.00;;;;;;4994749;28;20117;-83
2022/05/13 03:07:13;;;;;;;9.75;2.38;;;11.80;81.90;;;;;;4978007;28;20038;-81
2022/05/13 03:09:38;;;;;;;9.13;1.90;;;11.80;82.10;;;;;;4994448;28;20037;-79
2022/05/13 03:12:05;;;;;;;8.75;2.10;;;11.90;82.20;;;;;;4994571;28;20069;-80
2022/05/13 03:14:30;;;;;;;12.50;2.33;;;11.90;82.10;;;;;;4978355;28;20042;-80
2022/05/13 03:16:56;;;;;;;7.55;2.17;;;11.90;82.20;;;;;;4994383;28;20034;-79
2022/05/13 03:19:22;;;;;;;8.18;2.58;;;12.00;82.50;;;;;;4978211;28;20495;-80
2022/05/13 03:21:47;;;;;;;10.43;2.15;;;11.90;83.00;;;;;;4995331;28;20383;-84
2022/05/13 03:24:13;;;;;;;7.75;2.25;;;11.90;83.20;;;;;;4994275;28;20030;-79
2022/05/13 03:26:38;;;;;;;9.50;2.75;;;12.00;83.60;;;;;;4994536;28;20038;-80
2022/05/13 03:29:04;;;;;;;14.68;3.10;;;12.00;83.50;;;;;;5010588;28;20045;-81
2022/05/13 03:31:34;;;;;;;12.98;3.00;;;12.00;83.60;;;;;;4994156;28;20065;-78
2022/05/13 03:34:00;;;;;;;8.30;2.65;;;12.00;83.60;;;;;;4994205;28;20035;-83
2022/05/13 03:36:25;;;;;;;14.38;3.25;;;12.00;84.50;;;;;;4995376;28;20026;-82
2022/05/13 03:38:51;;;;;;;10.60;3.10;;;12.00;84.70;;;;;;4994498;28;20038;-81
2022/05/13 03:41:17;;;;;;;10.30;2.97;;;12.00;85.00;;;;;;4993661;28;20472;-79
2022/05/13 03:43:43;;;;;;;11.65;2.88;;;12.10;84.80;;;;;;4999147;28;20073;-78
2022/05/13 03:46:09;;;;;;;11.40;3.08;;;12.10;85.10;;;;;;4997224;28;20455;-81
2022/05/13 03:48:35;;;;;;;11.68;3.45;;;12.00;85.10;;;;;;4997269;28;20061;-80
2022/05/13 03:51:01;;;;;;;11.57;3.17;;;12.10;85.10;;;;;;5014636;28;20022;-79
2022/05/13 03:53:27;;;;;;;13.70;3.65;;;12.10;85.50;;;;;;5013276;28;20477;-77
2022/05/13 03:55:53;;;;;;;10.95;2.92;;;12.10;86.10;;;;;;5019929;28;20030;-76
2022/05/13 03:58:18;;;;;;;11.68;2.67;;;12.10;85.80;;;;;;5017623;28;20041;-75
2022/05/13 04:00:45;;;;;;;12.48;2.83;;;12.10;86.00;;;;;;4996500;28;20438;-76
2022/05/13 04:03:11;;;;;;;12.68;3.47;;;12.10;86.40;;;;;;5013117;28;20113;-76
2022/05/13 04:11:05;;;;;;;12.70;3.58;;;12.00;86.80;;;;;;5014611;28;20505;-77
2022/05/13 04:16:16;;;;;;;13.13;4.30;;;11.90;87.60;;;;;;4999782;28;20461;-76
2022/05/13 04:18:47;;;;;;;14.60;3.60;;;11.90;87.70;;;;;;4995751;28;20064;-76
2022/05/13 04:21:14;;;;;;;12.40;4.32;;;11.90;87.80;;;;;;5013147;28;20053;-76
2022/05/13 04:23:43;;;;;;;14.43;3.58;;;11.90;88.10;;;;;;5013998;28;20018;-77
2022/05/13 04:26:12;;;;;;;12.82;3.60;;;11.80;88.20;;;;;;5012789;28;20029;-77
2022/05/13 04:28:41;;;;;;;11.77;3.67;;;11.80;88.40;;;;;;4997208;28;20033;-77
2022/05/13 04:31:08;;;;;;;12.25;3.97;;;11.80;89.20;;;;;;4996955;28;20030;-77
2022/05/13 04:33:34;;;;;;;15.73;4.05;;;11.80;89.00;;;;;;4980298;28;20030;-77
2022/05/13 04:36:00;;;;;;;11.65;4.10;;;11.70;89.40;;;;;;4996493;28;20033;-78
2022/05/13 04:38:25;;;;;;;10.05;3.72;;;11.70;89.10;;;;;;4996170;28;20026;-77
2022/05/13 04:40:51;;;;;;;11.43;4.05;;;11.70;89.20;;;;;;4995982;28;20105;-77
2022/05/13 04:43:16;;;;;;;9.35;4.28;;;11.70;90.00;;;;;;4996303;28;20324;-77
2022/05/13 04:45:42;;;;;;;13.45;4.32;;;11.70;90.20;;;;;;4991949;28;20049;-76
2022/05/13 04:48:21;;;;;;;12.20;4.93;;;11.70;90.30;;;;;;5032146;28;20359;-77
2022/05/13 04:50:58;;;;;;;17.30;4.95;;;11.60;90.30;;;;;;5031941;28;20028;-76
2022/05/13 04:53:26;;;;;;;10.73;4.30;;;11.80;90.50;;;;;;5033235;28;20029;-75
2022/05/13 04:55:54;;;;;;;22.30;5.20;;;11.70;90.50;;;;;;5015826;28;20477;-77
2022/05/13 04:58:21;;;;;;;17.63;4.50;;;11.80;90.80;;;;;;5033439;28;20430;-76
2022/05/13 05:00:50;;;;;;;15.77;4.53;;;11.80;90.80;;;;;;4999595;28;20037;-75
2022/05/13 05:03:20;;;;;;;15.10;5.18;;;11.90;90.70;;;;;;5031896;28;20488;-76
2022/05/13 05:05:46;;;;;;;17.65;5.70;;;11.80;91.00;;;;;;5033252;28;20028;-76
2022/05/13 05:08:13;;;;;;;15.82;4.75;;;11.80;91.10;;;;;;5032256;28;20014;-75
2022/05/13 05:10:39;;;;;;;15.20;4.80;;;11.90;91.20;;;;;;5015642;28;20037;-75
2022/05/13 05:13:09;;;;;;;18.10;5.43;;;11.90;91.50;;;;;;5033265;28;20029;-76
2022/05/13 05:15:38;;;;;;;14.32;5.50;;;11.90;91.10;;;;;;5015925;28;20128;-75
2022/05/13 05:18:05;;;;;;;15.85;4.82;;;12.00;91.20;;;;;;5033046;28;20389;-76
2022/05/13 05:20:31;;;;;;;16.23;6.18;;;12.00;91.40;;;;;;5015430;28;20025;-77
2022/05/13 05:22:57;;;;;;;16.13;5.22;;;12.10;91.30;;;;;;5015373;28;20082;-76
2022/05/13 05:25:28;;;;;;;13.52;5.55;;;12.20;91.30;;;;;;5015242;28;20022;-76
2022/05/13 05:27:58;;;;;;;16.00;4.70;;;12.10;91.30;;;;;;5033223;28;20024;-76
2022/05/13 05:30:25;;;;;;;18.17;5.28;;;12.20;91.40;;;;;;5034394;28;20029;-75
2022/05/13 05:32:52;;;;;;;13.30;4.90;;;12.30;91.40;;;;;;5019130;28;20064;-79
2022/05/13 05:35:22;;;;;;;14.85;5.35;;;12.30;91.40;;;;;;5036732;28;20026;-77
2022/05/13 05:37:47;;;;;;;19.60;5.38;;;12.40;91.50;;;;;;5035573;28;20036;-78
2022/05/13 05:40:13;;;;;;;13.65;4.95;;;12.40;91.50;;;;;;5019360;28;20025;-76
2022/05/13 05:42:40;;;;;;;13.93;4.97;;;12.50;91.60;;;;;;5019199;28;20151;-75
2022/05/13 05:45:08;;;;;;;15.23;5.45;;;12.50;91.60;;;;;;5036604;28;20045;-77
2022/05/13 05:47:34;;;;;;;19.10;5.57;;;12.50;91.60;;;;;;5036554;28;20246;-76
2022/05/13 05:50:00;;;;;;;17.95;6.80;;;12.60;91.70;;;;;;5035402;28;20147;-76
2022/05/13 05:52:26;;;;;;;14.27;6.30;;;12.60;91.80;;;;;;5035606;28;20408;-76
2022/05/13 05:57:36;;;;;;;15.40;5.47;;;12.70;91.80;;;;;;5021231;28;20128;-76
2022/05/13 06:00:06;;;;;;;19.50;7.10;;;12.70;91.90;;;;;;5028183;28;20109;-78
2022/05/13 06:02:32;;;;;;;13.80;5.65;;;12.80;91.90;;;;;;5026944;28;20036;-77
2022/05/13 06:04:58;;;;;;;14.52;5.85;;;12.90;91.80;;;;;;5001919;28;20072;-77
2022/05/13 06:07:24;;;;;;;14.57;5.80;;;13.00;91.80;;;;;;5034199;28;20459;-77
2022/05/13 06:09:50;;;;;;;16.83;4.95;;;13.00;91.80;;;;;;5017890;28;20030;-77
2022/05/13 06:12:16;;;;;;;16.23;5.90;;;13.20;91.90;;;;;;5001219;28;20041;-76
2022/05/13 06:14:42;;;;;;;15.18;6.25;;;13.20;91.80;;;;;;5018034;28;20060;-76
2022/05/13 06:17:08;;;;;;;14.10;5.43;;;13.30;91.80;;;;;;5002002;28;20030;-76
2022/05/13 06:19:34;;;;;;;18.25;6.70;;;13.40;91.80;;;;;;5017836;28;20371;-77
2022/05/13 06:21:59;;;;;;;16.80;6.25;;;13.50;91.70;;;;;;5001689;28;20038;-78
2022/05/13 06:24:25;;;;;;;15.38;5.47;;;13.50;91.70;;;;;;5001501;28;20025;-77
2022/05/13 06:26:51;;;;;;;17.10;5.95;;;13.60;91.70;;;;;;5001695;28;20473;-78
2022/05/13 06:29:23;;;;;;;16.88;6.40;;;13.70;91.60;;;;;;5001558;28;20029;-78
2022/05/13 06:31:48;;;;;;;16.63;5.50;;;13.70;91.60;;;;;;5001505;28;20052;-76
2022/05/13 06:34:16;;;;;;;19.45;6.72;;;13.80;91.60;;;;;;5001564;28;20068;-77
2022/05/13 06:36:43;;;;;;;21.25;5.65;;;13.90;91.50;;;;;;5001423;28;20053;-77
2022/05/13 06:39:10;;;;;;;13.95;4.95;;;14.00;91.50;;;;;;5034377;28;20040;-77
2022/05/13 06:41:37;;;;;;;16.58;5.10;;;14.10;91.40;;;;;;5017062;28;20029;-77
2022/05/13 06:44:07;;;;;;;17.85;5.90;;;14.20;91.40;;;;;;5017587;28;20041;-76
2022/05/13 06:46:35;;;;;;;17.60;5.80;;;14.20;91.60;;;;;;5035667;28;20022;-77
2022/05/13 06:49:04;;;;;;;17.85;4.95;;;14.30;91.20;;;;;;5001807;28;20029;-79
2022/05/13 06:51:31;;;;;;;18.35;6.18;;;14.40;91.40;;;;;;5035501;28;20048;-77
2022/05/13 06:53:57;;;;;;;18.83;6.45;;;14.40;91.10;;;;;;5035497;28;20029;-77
2022/05/13 06:56:23;;;;;;;14.23;6.28;;;14.50;91.00;;;;;;5035418;28;20025;-78
2022/05/13 06:58:48;;;;;;;16.58;6.75;;;14.50;90.90;;;;;;4985268;28;20393;-77
2022/05/13 07:01:14;;;;;;;17.02;7.18;;;14.60;90.90;;;;;;5017931;28;20044;-76
2022/05/13 07:03:40;;;;;;;17.10;7.28;;;14.50;90.80;;;;;;5017507;28;20439;-78
2022/05/13 07:06:05;;;;;;;14.57;6.07;;;14.60;90.80;;;;;;5025300;28;20033;-75
2022/05/13 07:08:40;;;;;;;15.23;7.20;;;14.60;90.80;;;;;;5013967;28;20038;-77
2022/05/13 07:11:12;;;;;;;14.30;6.75;;;14.80;90.70;;;;;;5013685;28;20045;-79
2022/05/13 07:13:38;;;;;;;17.08;5.40;;;14.80;90.60;;;;;;5015326;28;20432;-76
2022/05/13 07:16:04;;;;;;;16.70;5.43;;;14.90;90.50;;;;;;5015308;28;20038;-78
2022/05/13 07:18:30;;;;;;;12.73;5.72;;;14.90;90.40;;;;;;4981818;28;20169;-77
2022/05/13 07:20:56;;;;;;;13.23;6.07;;;14.90;90.20;;;;;;4997831;28;20121;-75
2022/05/13 07:23:22;;;;;;;15.43;6.40;;;15.00;90.40;;;;;;4997766;28;20026;-76
2022/05/13 07:25:47;;;;;;;18.33;7.03;;;15.00;90.10;;;;;;4997578;28;20427;-76
2022/05/13 07:28:13;;;;;;;13.10;5.90;;;15.10;90.00;;;;;;4997650;28;20021;-78
2022/05/13 07:30:39;;;;;;;14.70;6.05;;;15.20;90.00;;;;;;4997394;28;20129;-77
2022/05/13 07:33:05;;;;;;;17.30;6.75;;;15.30;89.80;;;;;;4997462;28;20038;-76
2022/05/13 07:35:30;;;;;;;15.40;6.45;;;15.40;89.60;;;;;;5013683;28;20030;-78
2022/05/13 07:37:57;;;;;;;17.08;6.38;;;15.40;89.40;;;;;;4981058;28;20066;-78
2022/05/13 07:43:06;;;;;;;15.90;5.63;;;15.60;88.90;;;;;;5014964;28;20045;-78
2022/05/13 07:45:34;;;;;;;18.10;5.90;;;15.70;88.40;;;;;;4997057;28;20494;-76
2022/05/13 07:48:03;;;;;;;15.80;6.13;;;15.80;88.00;;;;;;5013232;28;20029;-76
2022/05/13 07:50:30;;;;;;;17.52;6.60;;;15.80;87.50;;;;;;4997525;28;20034;-81
2022/05/13 07:52:55;;;;;;;14.23;6.35;;;15.90;87.20;;;;;;4997366;28;20040;-80
2022/05/13 07:55:22;;;;;;;21.95;6.72;;;15.90;86.90;;;;;;4997271;28;20112;-78
2022/05/13 07:57:48;;;;;;;17.52;6.03;;;15.90;87.10;;;;;;5013648;28;20021;-83
2022/05/13 08:00:26;;;;;;;12.98;5.63;;;16.00;86.40;;;;;;4997563;28;20030;-81
2022/05/13 08:03:00;;;;;;;16.52;5.78;;;16.00;85.90;;;;;;5014884;28;20033;-84
2022/05/13 08:05:29;;;;;;;12.23;4.50;;;16.10;85.60;;;;;;5013802;28;20067;-77
2022/05/13 08:08:02;;;;;;;12.45;5.00;;;16.10;85.00;;;;;;5020085;28;20033;-77
2022/05/13 08:10:28;;;;;;;12.75;4.18;;;16.10;84.70;;;;;;5013044;28;20084;-76
2022/05/13 08:12:54;;;;;;;10.50;4.22;;;16.10;85.20;;;;;;4996417;28;20055;-75
2022/05/13 08:15:19;;;;;;;14.13;4.13;;;16.20;84.50;;;;;;4996765;28;20121;-80
2022/05/13 08:17:45;;;;;;;17.02;5.00;;;16.20;84.30;;;;;;4996720;28;20493;-77
2022/05/13 08:20:11;;;;;;;14.50;4.63;;;16.30;84.00;;;;;;4980620;28;20037;-76
2022/05/13 08:22:36;;;;;;;12.30;4.53;;;16.20;83.70;;;;;;4980345;28;20034;-78
2022/05/13 08:25:02;;;;;;;15.73;4.97;;;16.20;83.70;;;;;;4996667;28;20026;-76
2022/05/13 08:27:31;;;;;;;11.98;3.90;;;16.10;83.40;;;;;;4996513;28;20033;-75
2022/05/13 08:29:59;;;;;;;12.90;3.97;;;16.10;83.20;;;;;;5014040;28;20034;-78
2022/05/13 08:32:24;;;;;;;11.30;4.20;;;16.10;83.10;;;;;;5012720;28;20429;-79
2022/05/13 08:34:50;;;;;;;9.52;3.85;;;16.00;83.00;;;;;;4996229;28;20057;-78
2022/05/13 08:37:16;;;;;;;12.43;3.50;;;16.00;82.90;;;;;;4996204;28;20033;-79
2022/05/13 08:39:41;;;;;;;10.80;4.25;;;15.90;82.90;;;;;;4996257;28;20038;-78
2022/05/13 08:42:11;;;;;;;13.57;3.88;;;15.90;83.10;;;;;;4996570;28;20525;-76
2022/05/13 08:44:37;;;;;;;8.80;3.33;;;15.90;83.10;;;;;;5012274;28;20104;-79
2022/05/13 08:47:18;;;;;;;9.40;3.45;;;16.00;83.10;;;;;;4996113;28;20061;-77
2022/05/13 08:49:54;;;;;;;8.32;2.50;;;16.00;83.00;;;;;;5012533;28;20029;-78
2022/05/13 08:53:08;;;;;;;6.82;1.77;;;16.10;82.80;;;;;;5012182;28;20026;-79
2022/05/13 08:56:03;;;;;;;5.50;1.00;;;16.20;82.10;;;;;;4966921;28;20044;-76
2022/05/13 08:58:35;;;;;;;4.22;0.90;;;16.20;81.00;;;;;;5001462;28;20458;-78
2022/05/13 09:01:04;;;;;;;4.82;0.70;;;16.40;80.10;;;;;;5012393;28;20056;-77
2022/05/13 09:03:38;;;;;;;4.60;0.80;;;16.40;78.70;;;;;;5012121;28;20022;-78
2022/05/13 09:06:24;;;;;;;;;;;16.50;77.90;;;;;;5013966;28;20030;-75
2022/05/13 09:08:50;;;;;;;5.45;1.02;;;16.60;77.10;;;;;;4995578;28;19976;-76
2022/05/13 09:11:49;;;;;;;9.85;0.70;;;16.70;77.10;;;;;;5013565;28;20026;-77
2022/05/13 09:14:37;;;;;;;3.45;0.40;;;16.80;75.30;;;;;;5028936;28;20045;-76
2022/05/13 09:17:16;;;;;;;2.55;0.73;;;16.80;74.20;;;;;;5012294;28;20029;-78
2022/05/13 09:20:20;;;;;;;3.40;0.80;;;16.90;73.90;;;;;;5012262;28;20037;-76
2022/05/13 09:22:51;;;;;;;4.50;0.95;;;17.00;73.60;;;;;;5013604;28;20022;-76
2022/05/13 09:25:36;;;;;;;3.40;0.63;;;17.00;73.10;;;;;;5012250;28;20117;-77
2022/05/13 09:28:11;;;;;;;;;;;17.10;72.20;;;;;;5013957;28;20026;-78
2022/05/13 09:30:44;;;;;;;3.22;0.68;;;17.10;71.90;;;;;;5012072;28;19910;-76
2022/05/13 09:33:47;;;;;;;3.33;0.60;;;17.10;71.60;;;;;;5012131;28;20022;-78
2022/05/13 09:36:21;;;;;;;9.07;0.73;;;17.10;71.20;;;;;;5028282;28;20449;-78
2022/05/13 09:38:52;;;;;;;2.83;0.57;;;17.10;70.80;;;;;;5013254;28;20056;-78
2022/05/13 09:41:32;;;;;;;3.70;0.60;;;17.10;70.80;;;;;;5013165;28;20088;-76
2022/05/13 09:44:20;;;;;;;2.78;0.60;;;17.20;70.80;;;;;;5011720;28;20045;-80
2022/05/13 09:46:51;;;;;;;2.78;0.80;;;17.20;70.60;;;;;;5012024;28;20026;-76
2022/05/13 09:49:33;;;;;;;5.63;0.80;;;17.30;70.30;;;;;;5013039;28;20022;-79
2022/05/13 09:52:27;;;;;;;3.60;0.82;;;17.40;69.80;;;;;;5011787;28;20026;-77
2022/05/13 09:54:53;;;;;;;3.13;0.52;;;17.50;69.60;;;;;;5003420;28;20041;-79
2022/05/13 09:57:30;;;;;;;4.05;1.02;;;17.60;69.40;;;;;;5032811;28;20043;-78
2022/05/13 10:00:06;;;;;;;4.97;0.70;;;17.60;69.10;;;;;;5032177;28;20866;-77
2022/05/13 10:02:37;;;;;;;4.63;0.70;;;17.80;68.80;;;;;;5032520;28;20114;-75
2022/05/13 10:05:27;;;;;;;3.63;0.75;;;17.80;68.70;;;;;;5033306;28;20025;-76
2022/05/13 10:07:55;;;;;;;4.65;0.70;;;17.80;68.20;;;;;;5001637;28;20474;-78
2022/05/13 10:16:22;;;;;;;6.07;1.00;;;17.90;68.50;;;;;;5014041;28;20033;-77
2022/05/13 10:19:12;;;;;;;7.33;0.93;;;17.80;68.60;;;;;;5016476;28;20030;-77
2022/05/13 10:22:19;;;;;;;6.82;1.00;;;17.90;68.90;;;;;;5015045;28;20025;-76
2022/05/13 10:24:48;;;;;;;7.28;0.80;;;17.90;68.60;;;;;;4936552;29;20110;-76
2022/05/13 10:27:26;;;;;;;8.15;1.00;;;18.10;68.40;;;;;;5004704;28;20144;-77
2022/05/13 10:29:58;;;;;;;4.75;0.82;;;18.20;68.20;;;;;;5016132;28;20026;-78
2022/05/13 10:32:35;;;;;;;6.15;0.65;;;18.20;68.00;;;;;;4998817;28;20037;-75
2022/05/13 10:35:07;;;;;;;3.05;0.70;;;18.30;67.80;;;;;;5014770;28;20030;-78
2022/05/13 10:37:48;;;;;;;4.90;0.70;;;18.30;66.90;;;;;;5016176;28;20033;-77
2022/05/13 10:40:18;;;;;;;2.58;0.50;;;18.40;66.50;;;;;;5014985;28;20029;-76
2022/05/13 10:42:55;;;;;;;3.78;0.57;;;18.50;66.10;;;;;;5014541;28;20080;-78
2022/05/13 10:45:25;;;;;;;5.50;0.88;;;18.60;65.60;;;;;;5015742;28;20120;-77
2022/05/13 10:47:51;;;;;;;4.38;0.80;;;18.70;65.30;;;;;;5004043;28;20018;-77
2022/05/13 10:50:23;;;;;;;3.22;0.60;;;18.80;65.20;;;;;;5034377;28;20098;-78
2022/05/13 10:53:09;;;;;;;4.70;0.65;;;18.90;64.70;;;;;;5033919;28;20500;-77
2022/05/13 10:55:43;;;;;;;1.92;0.45;;;19.10;64.20;;;;;;5034202;28;20025;-76
2022/05/13 10:58:36;;;;;;;6.40;0.77;;;19.30;63.90;;;;;;5034168;28;20029;-77
2022/05/13 11:01:20;;;;;;;5.82;0.65;;;19.50;62.90;;;;;;5033860;28;20029;-79
2022/05/13 11:03:59;;;;;;;5.32;0.65;;;19.60;62.30;;;;;;5035413;28;20025;-78
2022/05/13 11:06:47;;;;;;;6.25;0.70;;;19.70;61.80;;;;;;5034048;28;20113;-77
2022/05/13 11:09:37;;;;;;;3.47;0.60;;;19.70;61.40;;;;;;5035495;28;20105;-78
2022/05/13 11:12:33;;;;;;;3.90;0.73;;;19.80;61.20;;;;;;5035284;28;20497;-76
2022/05/13 11:15:32;;;;;;;3.83;0.70;;;19.90;61.30;;;;;;5023964;28;20600;-76
2022/05/13 11:18:01;;;;;;;3.10;0.60;;;19.90;60.00;;;;;;4997644;28;20029;-78
2022/05/13 11:20:48;;;;;;;2.92;0.43;;;19.90;59.90;;;;;;5013492;28;20022;-76
2022/05/13 11:23:33;;;;;;;3.60;0.82;;;20.00;59.60;;;;;;5015063;28;20034;-77
2022/05/13 11:26:29;;;;;;;2.30;0.40;;;20.20;59.30;;;;;;5013781;28;20064;-77
2022/05/13 11:29:09;;;;;;;4.72;0.57;;;20.40;58.60;;;;;;5014931;28;20043;-77
2022/05/13 11:32:12;;;;;;;4.22;0.70;;;20.40;57.80;;;;;;5015022;28;20053;-77
2022/05/13 11:35:19;;;;;;;3.78;0.55;;;20.40;57.40;;;;;;5013792;28;20373;-75
2022/05/13 11:37:46;;;;;;;4.30;0.75;;;20.30;57.40;;;;;;5015170;28;20406;-76
2022/05/13 11:41:08;;;;;;;3.42;0.60;;;20.30;57.40;;;;;;5013457;28;20072;-78
2022/05/13 11:43:46;;;;;;;3.15;0.68;;;20.30;57.60;;;;;;4977291;28;20042;-80
2022/05/13 11:46:35;;;;;;;2.45;0.40;;;20.20;57.40;;;;;;5013459;28;20040;-79
2022/05/13 11:49:25;;;;;;;8.35;0.63;;;20.10;57.10;;;;;;5014669;28;20470;-78
2022/05/13 11:51:52;;;;;;;5.00;0.60;;;20.10;57.00;;;;;;5025331;28;20038;-76
2022/05/13 11:54:25;;;;;;;3.53;0.65;;;20.00;57.30;;;;;;5014611;28;20033;-77
2022/05/13 11:57:16;;;;;;;3.15;0.45;;;20.10;57.30;;;;;;5014262;28;20041;-74
2022/05/13 11:59:48;;;;;;;4.47;0.50;;;20.10;57.20;;;;;;5029553;28;20037;-76
2022/05/13 12:02:54;;;;;;;2.97;0.50;;;20.40;57.20;;;;;;5014044;28;20026;-78
2022/05/13 12:05:38;;;;;;;3.92;0.65;;;20.60;56.60;;;;;;5002681;28;20034;-77
2022/05/13 12:08:07;;;;;;;;;;;20.80;55.90;;;;;;5029937;28;20026;-76
2022/05/13 12:11:00;;;;;;;3.55;0.50;;;20.90;55.10;;;;;;5014682;28;20315;-78
2022/05/13 12:13:41;;;;;;;2.70;0.70;;;20.80;54.60;;;;;;5012966;28;20445;-78
2022/05/13 12:16:44;;;;;;;4.63;0.57;;;20.70;54.80;;;;;;5012952;28;20022;-78
2022/05/13 12:19:09;;;;;;;8.43;0.60;;;20.80;54.80;;;;;;5014306;28;20022;-83
2022/05/13 12:21:43;;;;;;;4.30;0.40;;;20.80;54.10;;;;;;5013417;28;21264;-82
2022/05/13 12:24:13;;;;;;;5.05;0.57;;;20.80;54.20;;;;;;5013212;28;20077;-80
2022/05/13 12:26:53;;;;;;;3.10;0.60;;;20.90;54.10;;;;;;5014452;28;20172;-80
2022/05/13 12:29:32;;;;;;;5.35;0.60;;;20.90;53.80;;;;;;5014327;28;20060;-78
2022/05/13 12:31:57;;;;;;;3.03;0.40;;;21.10;53.80;;;;;;5024996;28;20143;-85
2022/05/13 12:37:40;;;;;;;5.75;0.70;;;21.50;53.10;;;;;;5034059;28;20136;-86
2022/05/13 12:40:26;;;;;;;3.13;0.50;;;21.80;52.20;;;;;;5033360;28;20026;-87
2022/05/13 12:42:59;;;;;;;3.05;0.50;;;22.00;51.90;;;;;;5034229;28;20109;-84
2022/05/13 12:45:37;;;;;;;5.63;0.73;;;22.20;50.90;;;;;;5033947;28;20049;-81
2022/05/13 12:48:08;;;;;;;2.28;0.40;;;22.20;50.50;;;;;;5032015;28;20036;-84
2022/05/13 12:51:09;;;;;;;3.72;0.50;;;22.10;50.60;;;;;;5033618;28;20495;-79
2022/05/13 12:53:45;;;;;;;2.85;0.40;;;22.10;50.50;;;;;;5033374;28;20095;-82
2022/05/13 12:56:33;;;;;;;4.78;0.75;;;22.10;50.60;;;;;;5033314;28;20477;-86
2022/05/13 12:59:04;;;;;;;6.88;0.80;;;22.30;50.50;;;;;;5030809;28;20033;-83
2022/05/13 13:01:31;;;;;;;4.28;0.55;;;22.50;50.40;;;;;;5033211;28;20022;-83
2022/05/13 13:03:58;;;;;;;4.18;0.55;;;22.90;50.00;;;;;;4999682;28;20030;-82
2022/05/13 13:06:26;;;;;;;2.97;0.68;;;23.20;49.50;;;;;;5015583;28;20053;-84
2022/05/13 13:08:53;;;;;;;2.38;0.60;;;23.40;48.90;;;;;;4999550;28;20171;-87
2022/05/13 13:11:30;;;;;;;3.45;0.55;;;23.40;48.70;;;;;;5027051;28;20539;-83
2022/05/13 13:14:05;;;;;;;2.85;0.50;;;23.40;48.70;;;;;;5030418;28;20044;-83
2022/05/13 13:17:19;;;;;;;5.38;0.70;;;23.50;48.40;;;;;;5043557;28;20022;-84
2022/05/13 13:19:50;;;;;;;5.53;0.63;;;23.60;47.80;;;;;;4929841;29;20550;-84
2022/05/13 13:22:20;;;;;;;3.42;0.47;;;23.50;48.00;;;;;;4918085;29;20032;-82
2022/05/13 13:24:47;;;;;;;4.47;0.70;;;23.40;47.90;;;;;;4993524;28;20124;-81
2022/05/13 13:27:23;;;;;;;3.80;0.73;;;23.40;48.10;;;;;;5016155;28;20029;-79
2022/05/13 13:29:49;;;;;;;4.60;0.75;;;23.50;48.10;;;;;;5017297;28;20022;-86
2022/05/13 13:32:18;;;;;;;4.57;0.68;;;23.70;47.90;;;;;;5031688;28;20030;-84